createdAt,value
2024-02-11T00:00:41.774Z,99331.25
2024-02-11T00:03:08.655Z,99325.66
2024-02-11T00:05:35.682Z,99328.13
2024-02-11T00:08:02.515Z,99318.44
2024-02-11T00:10:29.173Z,99322.75
2024-02-11T00:12:58.742Z,99321.94
2024-02-11T00:15:25.845Z,99320.28
2024-02-11T00:17:53.026Z,99324.41
2024-02-11T00:20:19.719Z,99317.41
2024-02-11T00:22:46.473Z,99312.84
2024-02-11T00:25:13.742Z,99308.53
2024-02-11T00:27:46.174Z,99305.03
2024-02-11T00:30:13.018Z,99296.97
2024-02-11T00:32:39.783Z,99308.75
2024-02-11T00:35:07.289Z,99292.63
2024-02-11T00:37:33.988Z,99298.81
2024-02-11T00:40:00.706Z,99306.06
2024-02-11T00:42:29.233Z,99292.63
2024-02-11T00:44:56.439Z,99294.28
2024-02-11T00:47:24.109Z,99299.66
2024-02-11T00:49:51.382Z,99292.63
2024-02-11T00:52:18.136Z,99299.66
2024-02-11T00:54:44.942Z,99292.63
2024-02-11T00:57:11.642Z,99291.59
2024-02-11T00:59:41.991Z,99290.56
2024-02-11T01:02:09.007Z,99294.06
2024-02-11T01:04:40.377Z,99282.50
2024-02-11T01:07:07.774Z,99290.78
2024-02-11T01:09:34.986Z,99282.50
2024-02-11T01:12:01.832Z,99282.72
2024-02-11T01:14:31.439Z,99286.00
2024-02-11T01:16:58.905Z,99297.38
2024-02-11T01:19:25.786Z,99288.47
2024-02-11T01:21:55.814Z,99277.97
2024-02-11T01:24:23.406Z,99276.09
2024-02-11T01:26:51.618Z,99276.09
2024-02-11T01:29:19.953Z,99275.50
2024-02-11T01:31:47.640Z,99269.09
2024-02-11T01:34:16.595Z,99273.63
2024-02-11T01:36:47.474Z,99278.19
2024-02-11T01:39:18.187Z,99266.00
2024-02-11T01:41:44.856Z,99274.03
2024-02-11T01:44:12.222Z,99263.31
2024-02-11T01:46:40.726Z,99267.03
2024-02-11T01:49:07.671Z,99265.19
2024-02-11T01:51:36.043Z,99258.97
2024-02-11T01:54:04.428Z,99259.81
2024-02-11T01:56:32.218Z,99251.75
2024-02-11T01:58:59.111Z,99257.13
2024-02-11T02:01:29.519Z,99252.56
2024-02-11T02:03:56.410Z,99250.94
2024-02-11T02:06:25.053Z,99251.75
2024-02-11T02:08:53.808Z,99239.38
2024-02-11T02:11:22.112Z,99241.03
2024-02-11T02:13:49.785Z,99240.44
2024-02-11T02:16:16.779Z,99227.00
2024-02-11T02:18:47.016Z,99233.19
2024-02-11T02:21:14.984Z,99227.00
2024-02-11T02:23:41.665Z,99221.84
2024-02-11T02:26:09.259Z,99224.31
2024-02-11T02:28:36.813Z,99216.88
2024-02-11T02:31:09.612Z,99211.50
2024-02-11T02:33:37.681Z,99216.88
2024-02-11T02:36:05.387Z,99210.31
2024-02-11T02:38:34.716Z,99214.81
2024-02-11T02:41:01.636Z,99212.97
2024-02-11T02:43:29.601Z,99207.59
2024-02-11T02:45:56.162Z,99204.09
2024-02-11T02:48:24.143Z,99211.69
2024-02-11T02:50:50.889Z,99205.50
2024-02-11T02:53:17.529Z,99200.97
2024-02-11T02:55:44.399Z,99203.66
2024-02-11T02:58:15.585Z,99203.66
2024-02-11T03:00:42.983Z,99208.81
2024-02-11T03:03:09.778Z,99206.34
2024-02-11T03:05:38.718Z,99210.88
2024-02-11T03:08:07.263Z,99210.28
2024-02-11T03:10:34.406Z,99213.19
2024-02-11T03:13:01.779Z,99209.47
2024-02-11T03:15:30.141Z,99212.97
2024-02-11T03:17:57.115Z,99206.13
2024-02-11T03:20:23.828Z,99208.41
2024-02-11T03:22:53.751Z,99198.09
2024-02-11T03:25:21.057Z,99200.38
2024-02-11T03:27:54.063Z,99206.13
2024-02-11T03:30:24.205Z,99203.47
2024-02-11T03:32:52.416Z,99206.78
2024-02-11T03:35:21.090Z,99215.88
2024-02-11T03:37:48.335Z,99216.88
2024-02-11T03:40:18.783Z,99215.88
2024-02-11T03:42:47.117Z,99212.13
2024-02-11T03:45:16.391Z,99205.94
2024-02-11T03:47:43.665Z,99204.50
2024-02-11T03:50:17.410Z,99208.81
2024-02-11T03:52:44.519Z,99207.81
2024-02-11T03:55:12.462Z,99214.81
2024-02-11T03:57:40.047Z,99211.09
2024-02-11T04:00:21.434Z,99213.34
2024-02-11T04:02:48.721Z,99209.47
2024-02-11T04:05:17.896Z,99209.00
2024-02-11T04:07:48.096Z,99207.97
2024-02-11T04:10:23.107Z,99204.88
2024-02-11T04:12:53.621Z,99209.22
2024-02-11T04:15:22.264Z,99205.47
2024-02-11T04:17:58.384Z,99195.56
2024-02-11T04:20:26.812Z,99199.91
2024-02-11T04:22:56.971Z,99204.44
2024-02-11T04:25:24.058Z,99192.69
2024-02-11T04:27:53.128Z,99192.69
2024-02-11T04:30:22.381Z,99191.00
2024-02-11T04:32:50.534Z,99182.97
2024-02-11T04:35:18.017Z,99180.69
2024-02-11T04:37:48.919Z,99182.56
2024-02-11T04:40:17.087Z,99190.59
2024-02-11T04:42:48.472Z,99178.22
2024-02-11T04:45:17.324Z,99178.22
2024-02-11T04:47:50.036Z,99179.66
2024-02-11T04:50:17.797Z,99180.28
2024-02-11T04:52:55.410Z,99183.78
2024-02-11T04:55:32.468Z,99179.47
2024-02-11T04:58:00.120Z,99184.59
2024-02-11T05:00:27.526Z,99179.25
2024-02-11T05:02:55.142Z,99176.56
2024-02-11T05:05:45.959Z,99176.34
2024-02-11T05:08:17.679Z,99179.00
2024-02-11T05:10:47.116Z,99183.56
2024-02-11T05:13:15.724Z,99180.66
2024-02-11T05:15:43.597Z,99183.75
2024-02-11T05:18:13.525Z,99171.97
2024-02-11T05:20:41.491Z,99175.25
2024-02-11T05:23:12.383Z,99176.91
2024-02-11T05:25:43.474Z,99167.81
2024-02-11T05:28:12.784Z,99165.97
2024-02-11T05:30:51.690Z,99160.38
2024-02-11T05:33:21.022Z,99166.56
2024-02-11T05:35:51.203Z,99153.13
2024-02-11T05:38:21.542Z,99159.53
2024-02-11T05:40:50.817Z,99168.19
2024-02-11T05:43:18.013Z,99162.81
2024-02-11T05:45:45.637Z,99164.69
2024-02-11T05:48:14.926Z,99160.59
2024-02-11T05:50:45.342Z,99162.22
2024-02-11T05:53:12.044Z,99172.97
2024-02-11T05:55:40.123Z,99171.94
2024-02-11T05:58:09.914Z,99163.88
2024-02-11T06:00:44.248Z,99162.00
2024-02-11T06:03:12.321Z,99157.44
2024-02-11T06:05:39.277Z,99159.53
2024-02-11T06:08:06.292Z,99162.00
2024-02-11T06:10:35.631Z,99161.19
2024-02-11T06:13:08.141Z,99164.09
2024-02-11T06:15:39.447Z,99157.91
2024-02-11T06:18:06.727Z,99160.59
2024-02-11T06:20:34.279Z,99156.25
2024-02-11T06:23:01.632Z,99166.78
2024-02-11T06:25:28.758Z,99163.06
2024-02-11T06:27:55.409Z,99164.19
2024-02-11T06:30:22.518Z,99170.66
2024-02-11T06:32:52.430Z,99166.91
2024-02-11T06:35:25.565Z,99165.28
2024-02-11T06:37:52.761Z,99163.53
2024-02-11T06:40:25.866Z,99161.44
2024-02-11T06:42:53.425Z,99166.22
2024-02-11T06:45:21.003Z,99171.59
2024-02-11T06:47:48.720Z,99179.06
2024-02-11T06:50:16.224Z,99174.69
2024-02-11T06:52:44.490Z,99175.31
2024-02-11T06:55:13.829Z,99176.75
2024-02-11T06:57:46.179Z,99171.38
2024-02-11T07:00:20.805Z,99167.88
2024-02-11T07:03:02.170Z,99177.56
2024-02-11T07:05:29.097Z,99181.69
2024-02-11T07:07:58.086Z,99179.38
2024-02-11T07:10:26.077Z,99184.56
2024-02-11T07:12:52.736Z,99188.66
2024-02-11T07:15:21.356Z,99184.94
2024-02-11T07:17:49.055Z,99194.03
2024-02-11T07:20:17.235Z,99189.25
2024-02-11T07:22:45.385Z,99186.16
2024-02-11T07:25:15.885Z,99176.22
2024-02-11T07:27:43.159Z,99173.94
2024-02-11T07:30:16.556Z,99189.84
2024-02-11T07:32:44.641Z,99185.28
2024-02-11T07:35:13.919Z,99185.69
2024-02-11T07:37:43.807Z,99188.13
2024-02-11T07:40:13.526Z,99190.59
2024-02-11T07:42:43.031Z,99191.41
2024-02-11T07:45:16.731Z,99185.63
2024-02-11T07:47:47.213Z,99177.34
2024-02-11T07:50:16.084Z,99189.94
2024-02-11T07:52:44.519Z,99188.09
2024-02-11T07:55:16.460Z,99194.28
2024-02-11T07:57:44.608Z,99194.28
2024-02-11T08:00:16.295Z,99197.38
2024-02-11T08:02:44.545Z,99198.19
2024-02-11T08:05:12.421Z,99195.50
2024-02-11T08:07:39.354Z,99212.44
2024-02-11T08:10:08.917Z,99210.56
2024-02-11T08:12:35.572Z,99205.19
2024-02-11T08:15:02.450Z,99211.63
2024-02-11T08:17:29.105Z,99212.00
2024-02-11T08:19:55.934Z,99219.03
2024-02-11T08:22:25.215Z,99220.69
2024-02-11T08:24:51.874Z,99219.41
2024-02-11T08:27:19.717Z,99220.69
2024-02-11T08:29:48.833Z,99226.06
2024-02-11T08:32:18.560Z,99229.09
2024-02-11T08:34:45.727Z,99238.81
2024-02-11T08:37:15.630Z,99238.63
2024-02-11T08:39:42.718Z,99241.91
2024-02-11T08:42:12.067Z,99230.91
2024-02-11T08:44:40.344Z,99244.97
2024-02-11T08:47:10.258Z,99235.88
2024-02-11T08:49:37.414Z,99239.56
2024-02-11T08:52:04.923Z,99241.41
2024-02-11T08:54:31.534Z,99246.97
2024-02-11T08:56:58.847Z,99247.34
2024-02-11T08:59:26.765Z,99257.91
2024-02-11T09:01:56.792Z,99253.09
2024-02-11T09:04:27.231Z,99266.31
2024-02-11T09:06:58.363Z,99248.53
2024-02-11T09:09:28.763Z,99258.47
2024-02-11T09:11:59.471Z,99268.19
2024-02-11T09:14:28.052Z,99270.47
2024-02-11T09:16:55.698Z,99261.75
2024-02-11T09:19:25.516Z,99270.47
2024-02-11T09:21:53.265Z,99266.50
2024-02-11T09:24:20.163Z,99274.97
2024-02-11T09:26:48.758Z,99272.22
2024-02-11T09:29:17.075Z,99275.94
2024-02-11T09:31:43.924Z,99285.25
2024-02-11T09:34:11.768Z,99284.66
2024-02-11T09:36:39.938Z,99285.09
2024-02-11T09:39:07.252Z,99285.97
2024-02-11T09:41:36.877Z,99290.31
2024-02-11T09:44:05.755Z,99283.94
2024-02-11T09:46:36.462Z,99282.13
2024-02-11T09:49:11.928Z,99293.53
2024-02-11T09:51:38.712Z,99291.28
2024-02-11T09:54:06.946Z,99288.00
2024-02-11T09:56:33.916Z,99289.03
2024-02-11T09:59:00.952Z,99293.56
2024-02-11T10:01:29.643Z,99286.78
2024-02-11T10:03:58.904Z,99288.63
2024-02-11T10:06:35.278Z,99290.09
2024-02-11T10:09:02.064Z,99291.38
2024-02-11T10:11:34.881Z,99293.84
2024-02-11T10:14:01.605Z,99291.38
2024-02-11T10:16:35.901Z,99290.34
2024-02-11T10:19:03.174Z,99295.31
2024-02-11T10:21:29.917Z,99287.47
2024-02-11T10:23:56.600Z,99291.19
2024-02-11T10:26:23.678Z,99290.38
2024-02-11T10:28:50.511Z,99288.50
2024-02-11T10:31:17.197Z,99289.75
2024-02-11T10:33:46.343Z,99281.09
2024-02-11T10:36:14.338Z,99285.03
2024-02-11T10:38:41.550Z,99289.78
2024-02-11T10:41:09.603Z,99278.28
2024-02-11T10:43:41.144Z,99287.78
2024-02-11T10:46:12.059Z,99283.63
2024-02-11T10:48:38.783Z,99279.09
2024-02-11T10:51:18.223Z,99286.94
2024-02-11T10:54:03.182Z,99287.59
2024-02-11T10:56:31.219Z,99283.22
2024-02-11T10:59:14.757Z,99287.41
2024-02-11T11:01:41.787Z,99285.97
2024-02-11T11:04:14.368Z,99277.91
2024-02-11T11:06:43.549Z,99276.25
2024-02-11T11:09:11.152Z,99274.63
2024-02-11T11:11:38.180Z,99279.41
2024-02-11T11:14:11.775Z,99280.84
2024-02-11T11:16:40.307Z,99280.44
2024-02-11T11:19:14.584Z,99276.72
2024-02-11T11:21:56.862Z,99282.94
2024-02-11T11:24:25.000Z,99275.91
2024-02-11T11:26:55.263Z,99280.44
2024-02-11T11:29:26.806Z,99266.81
2024-02-11T11:31:56.875Z,99276.94
2024-02-11T11:34:23.696Z,99283.13
2024-02-11T11:36:50.623Z,99275.91
2024-02-11T11:39:20.316Z,99284.59
2024-02-11T11:41:49.905Z,99260.78
2024-02-11T11:44:25.889Z,99267.78
2024-02-11T11:46:55.221Z,99269.22
2024-02-11T11:49:23.130Z,99260.50
2024-02-11T11:51:58.789Z,99267.53
2024-02-11T11:54:29.518Z,99265.06
2024-02-11T11:57:00.354Z,99266.94
2024-02-11T11:59:27.548Z,99266.50
2024-02-11T12:01:57.233Z,99268.84
2024-02-11T12:04:24.290Z,99262.00
2024-02-11T12:06:51.078Z,99262.47
2024-02-11T12:09:18.883Z,99255.63
2024-02-11T12:11:46.009Z,99262.28
2024-02-11T12:14:13.386Z,99253.22
2024-02-11T12:16:49.919Z,99251.75
2024-02-11T12:19:17.082Z,99256.31
2024-02-11T12:21:45.606Z,99257.34
2024-02-11T12:24:12.451Z,99250.72
2024-02-11T12:26:43.106Z,99250.72
2024-02-11T12:29:09.785Z,99248.47
2024-02-11T12:31:39.537Z,99248.03
2024-02-11T12:34:09.207Z,99245.19
2024-02-11T12:36:37.110Z,99245.38
2024-02-11T12:39:04.151Z,99234.66
2024-02-11T12:41:34.288Z,99237.56
2024-02-11T12:44:01.039Z,99246.44
2024-02-11T12:46:28.700Z,99236.28
2024-02-11T12:48:56.835Z,99235.28
2024-02-11T12:51:23.755Z,99239.63
2024-02-11T12:53:50.901Z,99234.88
2024-02-11T12:56:20.469Z,99235.88
2024-02-11T12:58:51.424Z,99236.09
2024-02-11T13:01:18.494Z,99239.59
2024-02-11T13:03:47.687Z,99238.16
2024-02-11T13:06:14.578Z,99231.34
2024-02-11T13:08:44.968Z,99239.41
2024-02-11T13:11:17.638Z,99246.88
2024-02-11T13:13:44.841Z,99239.81
2024-02-11T13:16:13.765Z,99252.06
2024-02-11T13:18:40.820Z,99248.75
2024-02-11T13:21:08.434Z,99250.81
2024-02-11T13:23:38.301Z,99247.31
2024-02-11T13:26:05.909Z,99247.31
2024-02-11T13:28:39.862Z,99246.72
2024-02-11T13:31:15.303Z,99254.97
2024-02-11T13:33:50.973Z,99247.56
2024-02-11T13:36:19.931Z,99252.09
2024-02-11T13:38:46.862Z,99247.13
2024-02-11T13:41:15.232Z,99247.53
2024-02-11T13:43:44.733Z,99241.94
2024-02-11T13:46:14.716Z,99252.06
2024-02-11T13:48:43.830Z,99238.19
2024-02-11T13:51:11.659Z,99242.09
2024-02-11T13:53:41.845Z,99251.75
2024-02-11T13:56:11.291Z,99227.41
2024-02-11T13:58:59.546Z,99235.59
2024-02-11T14:01:33.841Z,99229.56
2024-02-11T14:07:11.603Z,99246.88
2024-02-11T14:09:48.566Z,99241.09
2024-02-11T14:12:30.290Z,99250.56
2024-02-11T14:14:59.422Z,99244.16
2024-02-11T14:20:59.087Z,99255.72
2024-02-11T14:27:01.003Z,99253.91
2024-02-11T14:29:37.393Z,99254.72
2024-02-11T14:32:18.669Z,99253.91
2024-02-11T14:34:51.834Z,99254.78
2024-02-11T14:37:30.473Z,99249.41
2024-02-11T14:40:05.671Z,99248.56
2024-02-11T14:42:46.272Z,99245.06
2024-02-11T14:45:37.961Z,99230.81
2024-02-11T14:48:18.282Z,99243.44
2024-02-11T14:53:51.144Z,99249.16
2024-02-11T14:56:52.696Z,99248.97
2024-02-11T15:02:36.758Z,99254.34
2024-02-11T15:05:11.885Z,99243.44
2024-02-11T15:07:51.980Z,99246.72
2024-02-11T15:10:49.605Z,99250.84
2024-02-11T15:13:18.368Z,99242.81
2024-02-11T15:15:53.583Z,99235.81
2024-02-11T15:18:25.529Z,99242.44
2024-02-11T15:20:55.473Z,99238.91
2024-02-11T15:23:45.186Z,99236.22
2024-02-11T15:26:27.015Z,99238.91
2024-02-11T15:29:24.043Z,99243.66
2024-02-11T15:32:00.555Z,99240.16
2024-02-11T15:34:27.697Z,99237.69
2024-02-11T15:36:55.066Z,99241.44
2024-02-11T15:39:25.953Z,99237.28
2024-02-11T15:41:55.867Z,99234.00
2024-02-11T15:44:23.402Z,99243.94
2024-02-11T15:46:50.404Z,99244.16
2024-02-11T15:49:17.493Z,99235.28
2024-02-11T15:51:48.723Z,99237.97
2024-02-11T15:54:16.431Z,99236.91
2024-02-11T15:56:43.616Z,99230.91
2024-02-11T15:59:13.264Z,99236.28
2024-02-11T16:01:41.642Z,99241.66
2024-02-11T16:04:11.411Z,99240.22
2024-02-11T16:06:38.488Z,99240.47
2024-02-11T16:09:07.058Z,99234.03
2024-02-11T16:11:35.220Z,99241.88
2024-02-11T16:14:02.917Z,99229.72
2024-02-11T16:16:30.106Z,99240.47
2024-02-11T16:18:57.823Z,99235.50
2024-02-11T16:21:24.875Z,99240.47
2024-02-11T16:23:51.628Z,99246.88
2024-02-11T16:26:19.088Z,99254.09
2024-02-11T16:28:46.742Z,99254.94
2024-02-11T16:31:14.968Z,99252.25
2024-02-11T16:33:42.354Z,99251.19
2024-02-11T16:36:10.717Z,99255.31
2024-02-11T16:38:43.687Z,99249.56
2024-02-11T16:41:10.663Z,99258.22
2024-02-11T16:43:40.219Z,99260.69
2024-02-11T16:46:06.995Z,99254.94
2024-02-11T16:48:36.965Z,99256.56
2024-02-11T16:51:07.431Z,99258.44
2024-02-11T16:53:34.073Z,99259.84
2024-02-11T16:56:01.991Z,99259.03
2024-02-11T16:58:32.164Z,99263.59
2024-02-11T17:01:03.334Z,99269.16
2024-02-11T17:03:33.211Z,99269.38
2024-02-11T17:06:02.054Z,99268.53
2024-02-11T17:08:29.583Z,99268.53
2024-02-11T17:10:56.440Z,99279.09
2024-02-11T17:13:23.659Z,99279.28
2024-02-11T17:15:52.431Z,99273.09
2024-02-11T17:18:19.271Z,99272.28
2024-02-11T17:20:55.554Z,99282.97
2024-02-11T17:23:31.782Z,99278.28
2024-02-11T17:25:58.512Z,99273.09
2024-02-11T17:28:25.510Z,99284.47
2024-02-11T17:30:55.916Z,99285.88
2024-02-11T17:33:25.200Z,99287.16
2024-02-11T17:35:55.048Z,99298.72
2024-02-11T17:38:22.381Z,99292.94
2024-02-11T17:40:52.126Z,99289.00
2024-02-11T17:43:18.961Z,99291.28
2024-02-11T17:45:49.588Z,99296.66
2024-02-11T17:48:18.983Z,99290.47
2024-02-11T17:50:47.073Z,99293.97
2024-02-11T17:53:15.204Z,99295.00
2024-02-11T17:55:42.170Z,99293.75
2024-02-11T17:58:08.976Z,99292.09
2024-02-11T18:00:46.280Z,99300.56
2024-02-11T18:03:20.593Z,99303.66
2024-02-11T18:05:48.551Z,99302.84
2024-02-11T18:08:17.579Z,99293.97
2024-02-11T18:10:47.441Z,99295.84
2024-02-11T18:13:14.264Z,99301.19
2024-02-11T18:15:43.931Z,99305.75
2024-02-11T18:18:14.649Z,99310.31
2024-02-11T18:20:43.894Z,99305.13
2024-02-11T18:23:12.501Z,99306.97
2024-02-11T18:25:54.883Z,99301.63
2024-02-11T18:28:28.356Z,99311.31
2024-02-11T18:30:56.103Z,99306.16
2024-02-11T18:33:25.847Z,99314.22
2024-02-11T18:35:55.572Z,99317.53
2024-02-11T18:38:25.854Z,99313.19
2024-02-11T18:40:54.377Z,99307.81
2024-02-11T18:43:21.331Z,99305.13
2024-02-11T18:45:49.598Z,99306.56
2024-02-11T18:48:19.012Z,99312.75
2024-02-11T18:50:46.000Z,99311.13
2024-02-11T18:53:13.778Z,99309.25
2024-02-11T18:55:42.154Z,99309.03
2024-02-11T18:58:09.830Z,99308.22
2024-02-11T19:00:37.697Z,99308.63
2024-02-11T19:03:05.207Z,99307.81
2024-02-11T19:05:34.826Z,99312.97
2024-02-11T19:08:02.812Z,99308.63
2024-02-11T19:10:30.895Z,99310.28
2024-02-11T19:13:00.081Z,99313.19
2024-02-11T19:15:26.662Z,99315.88
2024-02-11T19:17:53.372Z,99309.84
2024-02-11T19:20:20.901Z,99315.63
2024-02-11T19:22:50.807Z,99311.91
2024-02-11T19:25:17.772Z,99315.63
2024-02-11T19:27:47.790Z,99323.47
2024-02-11T19:30:14.956Z,99311.72
2024-02-11T19:32:42.220Z,99319.97
2024-02-11T19:35:09.974Z,99319.97
2024-02-11T19:37:39.305Z,99319.97
2024-02-11T19:40:08.408Z,99321.84
2024-02-11T19:42:36.121Z,99321.00
2024-02-11T19:45:03.700Z,99319.38
2024-02-11T19:47:32.645Z,99326.78
2024-02-11T19:49:59.365Z,99327.84
2024-02-11T19:52:26.795Z,99323.06
2024-02-11T19:54:53.491Z,99312.31
2024-02-11T19:57:24.550Z,99319.38
2024-02-11T19:59:53.144Z,99328.44
2024-02-11T20:02:21.804Z,99313.81
2024-02-11T20:04:48.622Z,99326.38
2024-02-11T20:07:15.407Z,99323.69
2024-02-11T20:09:43.237Z,99329.66
2024-02-11T20:12:10.239Z,99321.00
2024-02-11T20:14:39.253Z,99324.75
2024-02-11T20:17:09.743Z,99323.47
2024-02-11T20:19:37.522Z,99322.06
2024-02-11T20:22:07.864Z,99328.03
2024-02-11T20:24:36.026Z,99328.84
2024-02-11T20:27:04.380Z,99329.66
2024-02-11T20:29:31.283Z,99332.13
2024-02-11T20:31:58.157Z,99342.28
2024-02-11T20:34:26.230Z,99335.88
2024-02-11T20:36:52.937Z,99339.19
2024-02-11T20:39:19.671Z,99336.69
2024-02-11T20:41:47.131Z,99339.38
2024-02-11T20:44:14.484Z,99340.41
2024-02-11T20:46:42.485Z,99332.97
2024-02-11T20:49:10.089Z,99348.25
2024-02-11T20:51:37.600Z,99344.75
2024-02-11T20:54:05.373Z,99339.19
2024-02-11T20:56:33.270Z,99343.69
2024-02-11T20:59:00.429Z,99342.69
2024-02-11T21:01:27.623Z,99341.00
2024-02-11T21:03:57.562Z,99349.91
2024-02-11T21:06:27.562Z,99351.56
2024-02-11T21:08:54.291Z,99356.72
2024-02-11T21:11:21.888Z,99362.91
2024-02-11T21:13:48.931Z,99354.44
2024-02-11T21:16:16.744Z,99359.81
2024-02-11T21:18:54.272Z,99365.19
2024-02-11T21:21:21.454Z,99363.53
2024-02-11T21:23:48.039Z,99355.91
2024-02-11T21:26:15.252Z,99369.72
2024-02-11T21:28:42.541Z,99376.56
2024-02-11T21:31:19.912Z,99372.63
2024-02-11T21:33:50.024Z,99374.28
2024-02-11T21:36:17.239Z,99371.59
2024-02-11T21:38:44.719Z,99375.31
2024-02-11T21:41:12.140Z,99366.22
2024-02-11T21:43:39.053Z,99371.00
2024-02-11T21:46:10.104Z,99382.34
2024-02-11T21:48:41.695Z,99375.09
2024-02-11T21:51:09.157Z,99372.63
2024-02-11T21:53:37.284Z,99375.53
2024-02-11T21:56:05.850Z,99379.66
2024-02-11T21:58:33.629Z,99373.47
2024-02-11T22:01:01.068Z,99379.66
2024-02-11T22:03:31.874Z,99379.66
2024-02-11T22:05:58.640Z,99375.91
2024-02-11T22:08:26.751Z,99381.28
2024-02-11T22:10:53.868Z,99373.25
2024-02-11T22:13:20.781Z,99381.28
2024-02-11T22:15:47.525Z,99382.16
2024-02-11T22:18:16.105Z,99383.97
2024-02-11T22:20:43.069Z,99389.16
2024-02-11T22:23:10.282Z,99382.75
2024-02-11T22:25:38.508Z,99392.66
2024-02-11T22:28:06.558Z,99383.78
2024-02-11T22:30:34.649Z,99385.22
2024-02-11T22:33:01.456Z,99384.63
2024-02-11T22:35:28.265Z,99388.34
2024-02-11T22:37:55.100Z,99392.66
2024-02-11T22:40:21.867Z,99384.63
2024-02-11T22:42:49.188Z,99389.97
2024-02-11T22:45:18.828Z,99382.78
2024-02-11T22:47:46.450Z,99400.72
2024-02-11T22:50:13.394Z,99392.03
2024-02-11T22:52:41.828Z,99399.09
2024-02-11T22:55:11.453Z,99402.59
2024-02-11T22:57:39.140Z,99402.78
2024-02-11T23:00:26.475Z,99388.34
2024-02-11T23:02:54.229Z,99395.56
2024-02-11T23:05:21.109Z,99391.22
2024-02-11T23:07:48.726Z,99402.78
2024-02-11T23:10:15.400Z,99395.75
2024-02-11T23:12:47.742Z,99404.84
2024-02-11T23:15:14.493Z,99402.16
2024-02-11T23:17:41.906Z,99406.72
2024-02-11T23:20:16.369Z,99405.91
2024-02-11T23:22:44.874Z,99403.22
2024-02-11T23:25:13.264Z,99413.97
2024-02-11T23:27:40.018Z,99406.94
2024-02-11T23:32:49.848Z,99407.75
2024-02-11T23:35:16.949Z,99413.97
2024-02-11T23:37:44.181Z,99407.31
2024-02-11T23:40:14.378Z,99411.69
2024-02-11T23:42:41.149Z,99410.66
2024-02-11T23:45:08.643Z,99410.22
2024-02-11T23:47:38.957Z,99411.88
2024-02-11T23:50:08.203Z,99408.59
2024-02-11T23:52:35.012Z,99407.53
2024-02-11T23:55:01.800Z,99404.63
2024-02-11T23:57:28.413Z,99416.19
2024-02-11T23:59:55.094Z,99403.81
